Richmond, Virginia
Current Conditions -  °F | °C
As of 2:54 PM on Thursday 23 Oct 2014 (Local Time) from KRIC Reporting Station
Scattered Clouds Scattered Clouds  
Wind Chill: 68°   Ceiling: Unl
Heat Index: 68°   Visibility: 10mi
Dew Point: 45°   Wind: 15mph
Humidity: 43%   Direction: 330°NNW
Pressure: 29.86"   Gusts: NA
Location:  37.54°N, 77.43°W
Report Text: KRIC 231854Z 33013KT 10SM SCT050 20/07 A2986 RMK AO2 PK WND 34026/1759 SLP117 T02000072
Loading
Personal Weather Stations






























Interactive Weather Map
Tropical Storm Tracking
New forecast layout! Learn more

10-Day Weather Forecast

Advertisements
Track Severe Weather on mobile